Time;durP1;ratioP1;P1;durP2;ratioP2;P2;SDS_P1;SDS_P2;PMS_P1;PMS_P2;Temp;Humidity;BMP_temperature;BMP_pressure;BME280_temperature;BME280_humidity;BME280_pressure;Samples;Min_cycle;Max_cycle;Signal;HPM_P1;HPM_P2
2023/08/07 00:02:20;;;;;;;4.03;2.88;;;;;;;;;;6351241;28;20031;-79
2023/08/07 00:05:21;;;;;;;6.47;3.50;;;;;;;;;;6338991;28;20015;-79
2023/08/07 00:08:21;;;;;;;4.60;3.50;;;;;;;;;;6336138;28;20025;-80
2023/08/07 00:11:21;;;;;;;6.47;4.00;;;;;;;;;;6327201;28;20034;-82
2023/08/07 00:14:21;;;;;;;6.27;3.60;;;;;;;;;;6347555;28;20103;-80
2023/08/07 00:17:22;;;;;;;7.93;4.10;;;;;;;;;;6326530;28;20131;-80
2023/08/07 00:20:22;;;;;;;6.00;3.90;;;;;;;;;;6345158;28;20099;-81
2023/08/07 00:23:22;;;;;;;7.20;4.17;;;;;;;;;;6344449;28;20034;-80
2023/08/07 00:26:22;;;;;;;6.77;3.53;;;;;;;;;;6345044;28;20027;-76
2023/08/07 00:29:23;;;;;;;6.93;4.63;;;;;;;;;;6343279;28;20020;-76
2023/08/07 00:32:23;;;;;;;7.25;4.65;;;;;;;;;;6343961;28;20142;-75
2023/08/07 00:35:24;;;;;;;5.40;4.00;;;;;;;;;;6342593;28;20032;-78
2023/08/07 00:38:24;;;;;;;8.63;5.15;;;;;;;;;;6344776;28;20031;-78
2023/08/07 00:41:26;;;;;;;8.53;5.87;;;;;;;;;;6344199;28;20088;-78
2023/08/07 00:44:26;;;;;;;9.23;5.85;;;;;;;;;;6339257;28;20034;-79
2023/08/07 00:47:26;;;;;;;10.50;6.00;;;;;;;;;;6345420;28;20336;-81
2023/08/07 00:50:26;;;;;;;12.70;6.20;;;;;;;;;;6345722;28;20062;-80
2023/08/07 00:53:27;;;;;;;9.27;6.47;;;;;;;;;;6345919;28;20055;-80
2023/08/07 00:56:28;;;;;;;8.37;5.60;;;;;;;;;;6345275;28;20051;-80
2023/08/07 00:59:28;;;;;;;9.13;6.27;;;;;;;;;;6344974;28;20016;-80
2023/08/07 01:02:29;;;;;;;12.97;7.30;;;;;;;;;;6340515;28;20020;-80
2023/08/07 01:05:30;;;;;;;7.90;5.72;;;;;;;;;;6344940;28;20023;-81
2023/08/07 01:08:30;;;;;;;11.07;7.33;;;;;;;;;;6345172;28;20671;-81
2023/08/07 01:11:45;;;;;;;10.43;7.00;;;;;;;;;;6341882;28;20051;-81
2023/08/07 01:15:00;;;;;;;8.60;6.07;;;;;;;;;;6322663;28;20071;-82
2023/08/07 01:18:01;;;;;;;11.38;6.97;;;;;;;;;;6345307;28;20019;-80
2023/08/07 01:21:02;;;;;;;11.10;8.13;;;;;;;;;;6342688;28;20441;-80
2023/08/07 01:24:02;;;;;;;12.38;6.95;;;;;;;;;;6339913;28;20035;-80
2023/08/07 01:27:26;;;;;;;13.60;7.50;;;;;;;;;;6345225;28;20051;-80
2023/08/07 01:30:29;;;;;;;10.98;7.60;;;;;;;;;;6322067;28;20074;-81
2023/08/07 01:33:39;;;;;;;11.40;8.52;;;;;;;;;;6343071;28;20047;-81
2023/08/07 01:36:40;;;;;;;15.02;8.98;;;;;;;;;;6339090;28;20016;-79
2023/08/07 01:39:41;;;;;;;13.13;8.07;;;;;;;;;;6343449;28;20051;-80
2023/08/07 01:42:44;;;;;;;14.17;9.50;;;;;;;;;;6343814;28;20464;-79
2023/08/07 01:45:44;;;;;;;11.75;7.72;;;;;;;;;;6343445;28;20038;-75
2023/08/07 01:48:46;;;;;;;13.97;9.83;;;;;;;;;;6342708;28;20015;-76
2023/08/07 01:51:46;;;;;;;15.45;11.05;;;;;;;;;;6343072;28;20054;-77
2023/08/07 01:54:46;;;;;;;14.23;10.02;;;;;;;;;;6337389;28;20461;-74
2023/08/07 01:57:46;;;;;;;14.70;10.30;;;;;;;;;;6333755;28;20023;-75
2023/08/07 02:00:47;;;;;;;15.17;10.70;;;;;;;;;;6338836;28;20595;-75
2023/08/07 02:03:47;;;;;;;16.77;11.20;;;;;;;;;;6341904;28;20024;-75
2023/08/07 02:06:47;;;;;;;15.70;10.70;;;;;;;;;;6342420;28;20031;-75
2023/08/07 02:09:47;;;;;;;13.60;9.40;;;;;;;;;;6341319;28;20493;-75
2023/08/07 02:12:48;;;;;;;15.33;9.70;;;;;;;;;;6334098;28;20019;-75
2023/08/07 02:15:48;;;;;;;13.20;9.67;;;;;;;;;;6338565;28;20072;-74
2023/08/07 02:18:48;;;;;;;16.33;9.93;;;;;;;;;;6342411;28;20465;-74
2023/08/07 02:21:50;;;;;;;15.40;9.63;;;;;;;;;;6336226;28;20020;-74
2023/08/07 02:24:50;;;;;;;16.05;11.45;;;;;;;;;;6342270;28;20039;-75
2023/08/07 02:27:50;;;;;;;16.83;13.07;;;;;;;;;;6338957;28;20413;-75
2023/08/07 02:30:54;;;;;;;18.30;12.63;;;;;;;;;;6336026;28;20046;-75
2023/08/07 02:33:54;;;;;;;21.92;14.38;;;;;;;;;;6341432;28;20045;-75
2023/08/07 02:36:54;;;;;;;18.35;12.63;;;;;;;;;;6340630;28;20024;-75
2023/08/07 02:39:54;;;;;;;15.40;10.77;;;;;;;;;;6341765;28;20042;-74
2023/08/07 02:42:55;;;;;;;18.73;12.20;;;;;;;;;;6342577;28;20028;-75
2023/08/07 02:45:55;;;;;;;20.70;12.47;;;;;;;;;;6346320;28;20504;-75
2023/08/07 02:48:55;;;;;;;21.15;13.63;;;;;;;;;;6342420;28;20023;-75
2023/08/07 02:51:56;;;;;;;16.40;11.25;;;;;;;;;;6342842;28;20055;-74
2023/08/07 02:54:56;;;;;;;18.67;12.17;;;;;;;;;;6342952;28;20047;-79
2023/08/07 02:57:56;;;;;;;16.67;12.35;;;;;;;;;;6341465;28;20023;-79
2023/08/07 03:00:56;;;;;;;17.55;13.43;;;;;;;;;;6320399;28;20025;-79
2023/08/07 03:03:56;;;;;;;20.63;13.03;;;;;;;;;;6339079;28;20065;-79
2023/08/07 03:06:56;;;;;;;20.00;13.13;;;;;;;;;;6340378;28;20084;-79
2023/08/07 03:09:57;;;;;;;19.50;14.23;;;;;;;;;;6320984;28;20067;-79
2023/08/07 03:12:57;;;;;;;17.83;11.57;;;;;;;;;;6320522;28;20016;-79
2023/08/07 03:16:02;;;;;;;17.40;12.25;;;;;;;;;;6334320;28;20019;-75
2023/08/07 03:19:02;;;;;;;16.80;12.43;;;;;;;;;;6338070;28;20040;-75
2023/08/07 03:22:04;;;;;;;19.85;12.38;;;;;;;;;;6334356;28;20015;-75
2023/08/07 03:25:04;;;;;;;17.13;11.38;;;;;;;;;;6339180;28;20024;-75
2023/08/07 03:28:05;;;;;;;19.37;12.73;;;;;;;;;;6337432;28;20016;-76
2023/08/07 03:31:05;;;;;;;17.33;12.27;;;;;;;;;;6342344;28;20023;-75
2023/08/07 03:34:05;;;;;;;19.57;13.00;;;;;;;;;;6343642;28;20022;-75
2023/08/07 03:37:06;;;;;;;14.97;10.20;;;;;;;;;;6346225;28;20054;-75
2023/08/07 03:40:07;;;;;;;20.73;12.30;;;;;;;;;;6344130;27;20737;-75
2023/08/07 03:43:07;;;;;;;14.20;10.17;;;;;;;;;;6337669;28;20059;-75
2023/08/07 03:46:07;;;;;;;16.47;11.57;;;;;;;;;;6322860;28;20024;-75
2023/08/07 03:49:07;;;;;;;16.07;9.93;;;;;;;;;;6345599;28;20018;-75
2023/08/07 03:52:08;;;;;;;17.17;10.10;;;;;;;;;;6345234;28;20046;-76
2023/08/07 03:55:11;;;;;;;20.40;10.80;;;;;;;;;;6345511;28;20023;-75
2023/08/07 03:58:11;;;;;;;14.27;9.60;;;;;;;;;;6343219;28;20512;-75
2023/08/07 04:01:12;;;;;;;19.50;11.83;;;;;;;;;;6341224;28;20052;-76
2023/08/07 04:04:12;;;;;;;17.00;10.10;;;;;;;;;;6345964;27;20062;-76
2023/08/07 04:07:12;;;;;;;14.87;9.70;;;;;;;;;;6344315;27;20074;-75
2023/08/07 04:10:12;;;;;;;16.00;9.13;;;;;;;;;;6327178;28;20043;-75
2023/08/07 04:13:13;;;;;;;15.25;10.25;;;;;;;;;;6341273;28;20027;-76
2023/08/07 04:16:13;;;;;;;15.23;9.60;;;;;;;;;;6345191;28;20023;-76
2023/08/07 04:19:13;;;;;;;15.37;9.30;;;;;;;;;;6326216;28;20490;-75
2023/08/07 04:22:14;;;;;;;17.15;8.70;;;;;;;;;;6340300;28;20016;-76
2023/08/07 04:25:14;;;;;;;15.53;8.37;;;;;;;;;;6337323;28;20112;-82
2023/08/07 04:28:16;;;;;;;12.80;9.10;;;;;;;;;;6351642;28;20119;-81
2023/08/07 04:31:16;;;;;;;13.13;9.02;;;;;;;;;;6353053;28;20020;-81
2023/08/07 04:34:17;;;;;;;12.60;7.50;;;;;;;;;;6359826;28;20034;-81
2023/08/07 04:37:17;;;;;;;10.55;6.93;;;;;;;;;;6343597;28;20050;-76
2023/08/07 04:40:17;;;;;;;14.25;8.40;;;;;;;;;;6343926;28;20019;-76
2023/08/07 04:43:19;;;;;;;11.83;7.60;;;;;;;;;;6338857;27;20039;-76
2023/08/07 04:46:19;;;;;;;7.93;6.38;;;;;;;;;;6339275;28;20410;-76
2023/08/07 04:49:20;;;;;;;10.93;6.90;;;;;;;;;;6337948;28;20045;-76
2023/08/07 04:52:20;;;;;;;9.30;7.10;;;;;;;;;;6344021;28;20039;-77
2023/08/07 04:55:20;;;;;;;8.70;5.63;;;;;;;;;;6344048;28;20067;-76
2023/08/07 04:58:20;;;;;;;8.77;5.80;;;;;;;;;;6325742;28;20023;-77
2023/08/07 05:01:20;;;;;;;9.03;5.90;;;;;;;;;;6341390;28;20473;-76
2023/08/07 05:04:21;;;;;;;8.53;5.93;;;;;;;;;;6340073;28;20106;-76
2023/08/07 05:07:21;;;;;;;6.55;4.07;;;;;;;;;;6339911;28;20546;-76
2023/08/07 05:10:21;;;;;;;4.78;3.90;;;;;;;;;;6343903;28;20335;-76
2023/08/07 05:13:21;;;;;;;7.57;4.83;;;;;;;;;;6343150;28;20028;-76
2023/08/07 05:16:23;;;;;;;10.03;5.90;;;;;;;;;;6343992;28;20087;-76
2023/08/07 05:19:23;;;;;;;8.48;4.70;;;;;;;;;;6344061;28;20302;-76
2023/08/07 05:22:24;;;;;;;6.63;4.10;;;;;;;;;;6340745;28;20024;-76
2023/08/07 05:25:25;;;;;;;9.15;3.95;;;;;;;;;;6339739;28;20502;-77
2023/08/07 05:28:25;;;;;;;4.43;2.83;;;;;;;;;;6342053;28;20028;-77
2023/08/07 05:31:26;;;;;;;4.38;2.65;;;;;;;;;;6343717;28;20047;-76
2023/08/07 05:34:26;;;;;;;5.60;2.60;;;;;;;;;;6331807;28;20028;-76
2023/08/07 05:37:26;;;;;;;3.33;2.50;;;;;;;;;;6338309;28;20062;-80
2023/08/07 05:40:27;;;;;;;5.20;2.57;;;;;;;;;;6337073;27;20011;-79
2023/08/07 05:43:27;;;;;;;2.73;1.93;;;;;;;;;;6337123;28;20034;-78
2023/08/07 05:46:27;;;;;;;4.60;2.30;;;;;;;;;;6342770;28;20019;-77
2023/08/07 05:49:27;;;;;;;1.58;1.48;;;;;;;;;;6340958;28;20027;-76
2023/08/07 05:52:27;;;;;;;2.67;2.03;;;;;;;;;;6340141;28;20047;-77
2023/08/07 05:55:28;;;;;;;4.10;2.67;;;;;;;;;;6342558;28;20088;-79
2023/08/07 05:58:28;;;;;;;4.75;3.30;;;;;;;;;;6335957;28;20024;-80
2023/08/07 06:01:30;;;;;;;2.73;2.17;;;;;;;;;;6339673;28;20470;-81
2023/08/07 06:04:31;;;;;;;2.70;2.00;;;;;;;;;;6347167;28;20012;-82
2023/08/07 06:07:31;;;;;;;1.77;1.67;;;;;;;;;;6335458;28;20053;-75
2023/08/07 06:10:31;;;;;;;2.88;2.67;;;;;;;;;;6337296;28;20474;-75
2023/08/07 06:13:31;;;;;;;3.87;2.23;;;;;;;;;;6337956;28;20117;-76
2023/08/07 06:16:32;;;;;;;2.77;2.53;;;;;;;;;;6342699;28;20022;-75
2023/08/07 06:19:32;;;;;;;2.90;2.47;;;;;;;;;;6343415;28;20012;-76
2023/08/07 06:22:33;;;;;;;4.03;2.05;;;;;;;;;;6342034;28;20285;-76
2023/08/07 06:25:33;;;;;;;3.03;2.23;;;;;;;;;;6320689;28;20481;-75
2023/08/07 06:28:34;;;;;;;3.10;1.90;;;;;;;;;;6340873;28;20393;-74
2023/08/07 06:31:34;;;;;;;2.60;1.80;;;;;;;;;;6333406;28;20028;-75
2023/08/07 06:34:35;;;;;;;2.80;1.77;;;;;;;;;;6339130;28;20050;-74
2023/08/07 06:37:35;;;;;;;2.27;1.60;;;;;;;;;;6341240;28;20023;-75
2023/08/07 06:40:35;;;;;;;4.53;2.05;;;;;;;;;;6336776;28;20069;-75
2023/08/07 06:43:36;;;;;;;2.83;2.03;;;;;;;;;;6340265;28;20023;-74
2023/08/07 06:46:36;;;;;;;2.40;2.10;;;;;;;;;;6341652;28;20470;-77
2023/08/07 06:49:36;;;;;;;2.83;1.77;;;;;;;;;;6337574;28;20055;-80
2023/08/07 06:52:37;;;;;;;4.53;2.87;;;;;;;;;;6336209;28;20811;-79
2023/08/07 06:55:37;;;;;;;4.77;2.73;;;;;;;;;;6338662;28;20066;-82
2023/08/07 06:58:38;;;;;;;2.47;1.97;;;;;;;;;;6336722;28;20265;-84
2023/08/07 07:01:38;;;;;;;3.47;2.77;;;;;;;;;;6335501;28;20016;-82
2023/08/07 07:04:38;;;;;;;3.17;2.27;;;;;;;;;;6353442;28;20072;-85
2023/08/07 07:07:38;;;;;;;5.87;3.07;;;;;;;;;;6345879;28;20043;-87
2023/08/07 07:10:40;;;;;;;3.10;2.70;;;;;;;;;;6345999;28;20053;-83
2023/08/07 07:13:41;;;;;;;7.72;2.72;;;;;;;;;;6348692;28;20027;-87
2023/08/07 07:16:42;;;;;;;2.63;2.05;;;;;;;;;;6348153;28;20034;-86
2023/08/07 07:19:42;;;;;;;4.47;3.10;;;;;;;;;;6339768;28;20047;-86
2023/08/07 07:22:42;;;;;;;6.67;3.67;;;;;;;;;;6351387;28;20483;-86
2023/08/07 07:25:42;;;;;;;5.43;2.80;;;;;;;;;;6349652;28;20004;-85
2023/08/07 07:28:43;;;;;;;5.83;4.13;;;;;;;;;;6341040;28;20727;-85
2023/08/07 07:31:43;;;;;;;6.30;4.97;;;;;;;;;;6319844;27;20541;-84
2023/08/07 07:34:43;;;;;;;7.60;4.30;;;;;;;;;;6341325;28;20556;-74
2023/08/07 07:37:44;;;;;;;5.40;3.87;;;;;;;;;;6345293;28;20037;-75
2023/08/07 07:40:45;;;;;;;5.53;2.75;;;;;;;;;;6342494;28;20126;-75
2023/08/07 07:43:46;;;;;;;3.40;2.58;;;;;;;;;;6344611;28;20106;-76
2023/08/07 07:46:47;;;;;;;3.88;2.50;;;;;;;;;;6343319;28;20054;-75
2023/08/07 07:49:48;;;;;;;2.63;2.13;;;;;;;;;;6322317;28;20036;-75
2023/08/07 07:52:48;;;;;;;3.28;2.30;;;;;;;;;;6339852;27;20501;-75
2023/08/07 07:55:49;;;;;;;2.08;1.73;;;;;;;;;;6339917;28;20026;-75
2023/08/07 07:58:49;;;;;;;3.63;2.50;;;;;;;;;;6326531;28;20793;-76
2023/08/07 08:01:51;;;;;;;3.90;2.20;;;;;;;;;;6336835;28;20042;-76
2023/08/07 08:04:51;;;;;;;3.70;2.45;;;;;;;;;;6339662;28;20027;-76
2023/08/07 08:07:52;;;;;;;3.87;3.33;;;;;;;;;;6339505;28;20091;-76
2023/08/07 08:10:52;;;;;;;2.00;1.83;;;;;;;;;;6343230;28;20068;-76
2023/08/07 08:13:52;;;;;;;4.00;1.83;;;;;;;;;;6338772;28;20043;-76
2023/08/07 08:16:52;;;;;;;4.38;2.58;;;;;;;;;;6338753;28;20056;-74
2023/08/07 08:19:53;;;;;;;2.80;2.15;;;;;;;;;;6318276;28;20393;-74
2023/08/07 08:22:53;;;;;;;3.10;2.30;;;;;;;;;;6339475;28;20020;-75
2023/08/07 08:25:53;;;;;;;4.60;2.20;;;;;;;;;;6323429;28;20054;-85
2023/08/07 08:28:54;;;;;;;1.77;1.50;;;;;;;;;;6346414;28;20019;-84
2023/08/07 08:31:56;;;;;;;3.38;1.90;;;;;;;;;;6342776;28;20016;-80
2023/08/07 08:34:56;;;;;;;5.00;2.47;;;;;;;;;;6341478;28;20027;-74
2023/08/07 08:37:56;;;;;;;2.50;2.30;;;;;;;;;;6338675;28;20520;-75
2023/08/07 08:40:57;;;;;;;3.83;2.60;;;;;;;;;;6323105;27;20023;-74
2023/08/07 08:43:59;;;;;;;5.80;3.23;;;;;;;;;;6337225;28;20023;-75
2023/08/07 08:46:59;;;;;;;3.10;2.65;;;;;;;;;;6337061;28;20543;-75
2023/08/07 08:50:06;;;;;;;5.23;2.60;;;;;;;;;;6343473;28;20106;-76
2023/08/07 08:53:08;;;;;;;3.40;2.22;;;;;;;;;;6340681;28;20052;-76
2023/08/07 08:56:09;;;;;;;2.30;1.98;;;;;;;;;;6341929;28;20032;-76
2023/08/07 08:59:10;;;;;;;4.03;2.70;;;;;;;;;;6339039;28;20028;-76
2023/08/07 09:02:10;;;;;;;2.70;2.20;;;;;;;;;;6306369;28;20483;-76
2023/08/07 09:05:10;;;;;;;2.50;2.30;;;;;;;;;;6338383;28;20024;-76
2023/08/07 09:08:11;;;;;;;4.90;2.20;;;;;;;;;;6342156;28;20100;-75
2023/08/07 09:11:12;;;;;;;4.47;1.93;;;;;;;;;;6342806;28;20020;-76
2023/08/07 09:14:15;;;;;;;2.70;1.90;;;;;;;;;;6339588;28;21811;-78
2023/08/07 09:17:17;;;;;;;2.65;2.40;;;;;;;;;;6343200;27;20027;-76
2023/08/07 09:20:17;;;;;;;2.45;2.25;;;;;;;;;;6341995;28;20535;-76
2023/08/07 09:23:17;;;;;;;3.03;2.13;;;;;;;;;;6324493;28;20008;-76
2023/08/07 09:26:21;;;;;;;2.00;1.80;;;;;;;;;;6334115;28;20078;-77
2023/08/07 09:29:22;;;;;;;2.35;1.80;;;;;;;;;;6341772;28;20015;-76
2023/08/07 09:32:23;;;;;;;1.87;1.70;;;;;;;;;;6336794;28;20087;-75
2023/08/07 09:35:24;;;;;;;4.93;2.38;;;;;;;;;;6331390;28;20414;-77
2023/08/07 09:38:29;;;;;;;3.63;2.87;;;;;;;;;;6337850;28;20034;-77
2023/08/07 09:41:30;;;;;;;3.75;2.70;;;;;;;;;;6328132;27;20019;-77
2023/08/07 09:44:37;;;;;;;6.00;2.20;;;;;;;;;;6336755;28;20501;-76
2023/08/07 09:47:37;;;;;;;4.07;2.50;;;;;;;;;;6341549;27;20045;-83
2023/08/07 09:50:38;;;;;;;3.80;2.90;;;;;;;;;;6339851;28;20030;-80
2023/08/07 09:53:39;;;;;;;3.83;2.43;;;;;;;;;;6340627;28;20094;-80
2023/08/07 09:56:40;;;;;;;3.28;2.05;;;;;;;;;;6343117;28;20055;-81
2023/08/07 09:59:41;;;;;;;2.33;1.87;;;;;;;;;;6342318;28;20020;-84
2023/08/07 10:02:42;;;;;;;2.33;1.70;;;;;;;;;;6335488;28;20098;-83
2023/08/07 10:05:43;;;;;;;3.70;2.35;;;;;;;;;;6340286;28;20069;-83
2023/08/07 10:08:44;;;;;;;5.87;1.93;;;;;;;;;;6342119;28;20024;-79
2023/08/07 10:11:44;;;;;;;3.45;1.90;;;;;;;;;;6340648;28;20092;-84
2023/08/07 10:14:45;;;;;;;2.47;1.97;;;;;;;;;;6340992;28;20044;-84
2023/08/07 10:17:46;;;;;;;2.47;1.50;;;;;;;;;;6343579;28;20023;-81
2023/08/07 10:20:47;;;;;;;3.33;2.00;;;;;;;;;;6341789;28;20092;-82
2023/08/07 10:23:47;;;;;;;1.95;1.27;;;;;;;;;;6344121;28;20015;-82
2023/08/07 10:26:48;;;;;;;2.60;1.13;;;;;;;;;;6340406;28;20529;-78
2023/08/07 10:29:51;;;;;;;2.93;1.57;;;;;;;;;;6338625;28;20031;-79
2023/08/07 10:32:52;;;;;;;4.13;2.13;;;;;;;;;;6336252;28;20023;-79
2023/08/07 10:35:52;;;;;;;3.17;2.00;;;;;;;;;;6339961;28;20081;-81
2023/08/07 10:39:05;;;;;;;4.57;2.17;;;;;;;;;;6342219;28;20011;-80
2023/08/07 10:42:06;;;;;;;4.65;2.30;;;;;;;;;;6345890;27;20015;-80
2023/08/07 10:45:07;;;;;;;6.00;2.43;;;;;;;;;;6346271;28;20031;-75
2023/08/07 10:48:10;;;;;;;6.00;2.92;;;;;;;;;;6348315;27;20029;-74
2023/08/07 10:51:14;;;;;;;5.70;3.20;;;;;;;;;;6340685;28;20042;-75
2023/08/07 10:54:15;;;;;;;9.18;3.17;;;;;;;;;;6336955;28;20189;-75
2023/08/07 10:57:16;;;;;;;5.97;2.58;;;;;;;;;;6344103;28;20035;-79
2023/08/07 11:00:17;;;;;;;6.07;2.50;;;;;;;;;;6345081;27;20027;-78
2023/08/07 11:03:27;;;;;;;5.53;2.30;;;;;;;;;;6345416;28;20114;-77
2023/08/07 11:06:32;;;;;;;4.93;2.50;;;;;;;;;;6344461;28;20552;-78
2023/08/07 11:09:33;;;;;;;2.47;2.10;;;;;;;;;;6344479;28;20106;-79
2023/08/07 11:12:35;;;;;;;5.07;2.92;;;;;;;;;;6346406;28;20416;-79
2023/08/07 11:15:35;;;;;;;3.70;2.40;;;;;;;;;;6343568;27;20516;-79
2023/08/07 11:18:40;;;;;;;5.57;2.43;;;;;;;;;;6344616;27;20024;-78
2023/08/07 11:21:42;;;;;;;2.45;2.00;;;;;;;;;;6342492;28;20493;-77
2023/08/07 11:24:42;;;;;;;4.47;2.72;;;;;;;;;;6339585;28;20024;-80
2023/08/07 11:27:43;;;;;;;4.80;2.93;;;;;;;;;;6342634;28;20461;-80
2023/08/07 11:30:43;;;;;;;6.13;2.87;;;;;;;;;;6344675;28;20026;-81
2023/08/07 11:33:45;;;;;;;3.93;2.30;;;;;;;;;;6342084;27;20102;-78
2023/08/07 11:36:46;;;;;;;3.75;2.30;;;;;;;;;;6339232;28;20023;-78
2023/08/07 11:39:46;;;;;;;5.90;3.83;;;;;;;;;;6344554;28;20077;-78
2023/08/07 11:42:47;;;;;;;4.07;2.97;;;;;;;;;;6345733;27;20012;-79
2023/08/07 11:45:47;;;;;;;4.07;2.83;;;;;;;;;;6345148;28;20657;-81
2023/08/07 11:48:47;;;;;;;5.07;2.57;;;;;;;;;;6342508;28;20027;-83
2023/08/07 11:51:48;;;;;;;4.23;2.87;;;;;;;;;;6321214;28;20120;-83
2023/08/07 11:54:49;;;;;;;5.00;3.40;;;;;;;;;;6345302;28;20127;-74
2023/08/07 11:57:49;;;;;;;6.40;2.80;;;;;;;;;;6346746;27;20023;-81
2023/08/07 12:00:50;;;;;;;3.65;2.70;;;;;;;;;;6341287;28;20020;-79
2023/08/07 12:03:57;;;;;;;4.97;3.10;;;;;;;;;;6345211;28;20542;-80
2023/08/07 12:06:57;;;;;;;7.40;3.00;;;;;;;;;;6320346;28;20055;-76
2023/08/07 12:09:59;;;;;;;5.50;3.50;;;;;;;;;;6340638;28;20034;-77
2023/08/07 12:13:04;;;;;;;9.02;3.22;;;;;;;;;;6344537;28;20016;-75
2023/08/07 12:16:04;;;;;;;6.30;3.10;;;;;;;;;;6336104;28;20466;-76
2023/08/07 12:19:05;;;;;;;4.73;2.87;;;;;;;;;;6341966;28;20045;-77
2023/08/07 12:22:06;;;;;;;3.70;2.40;;;;;;;;;;6338226;28;20034;-76
2023/08/07 12:25:06;;;;;;;7.57;3.35;;;;;;;;;;6337365;28;20458;-77
2023/08/07 12:28:07;;;;;;;6.17;3.27;;;;;;;;;;6335700;28;20148;-77
2023/08/07 12:31:08;;;;;;;4.23;2.67;;;;;;;;;;6337085;28;20031;-77
2023/08/07 12:34:09;;;;;;;7.80;3.13;;;;;;;;;;6337631;28;20307;-77
2023/08/07 12:37:09;;;;;;;8.43;3.72;;;;;;;;;;6336130;28;20394;-77
2023/08/07 12:40:10;;;;;;;9.63;4.27;;;;;;;;;;6335660;28;20026;-76
2023/08/07 12:43:11;;;;;;;8.23;5.00;;;;;;;;;;6334694;28;20043;-74
2023/08/07 12:46:11;;;;;;;5.90;4.60;;;;;;;;;;6343073;27;20546;-75
2023/08/07 12:49:11;;;;;;;7.83;4.07;;;;;;;;;;6323776;28;20049;-75
2023/08/07 12:52:11;;;;;;;7.50;5.00;;;;;;;;;;6340464;28;20500;-75
2023/08/07 12:55:11;;;;;;;8.43;3.95;;;;;;;;;;6338983;28;20606;-75
2023/08/07 12:58:12;;;;;;;6.50;4.50;;;;;;;;;;6339383;28;20027;-76
2023/08/07 13:01:12;;;;;;;9.83;4.93;;;;;;;;;;6340179;28;20021;-76
2023/08/07 13:04:15;;;;;;;11.57;6.47;;;;;;;;;;6342328;28;20019;-75
2023/08/07 13:07:15;;;;;;;11.23;6.95;;;;;;;;;;6337969;28;20028;-76
2023/08/07 13:10:16;;;;;;;9.73;6.32;;;;;;;;;;6343527;28;20153;-76
2023/08/07 13:13:16;;;;;;;8.60;5.20;;;;;;;;;;6341482;28;20035;-76
2023/08/07 13:16:18;;;;;;;12.70;6.83;;;;;;;;;;6327757;28;20029;-81
2023/08/07 13:19:18;;;;;;;12.50;6.32;;;;;;;;;;6337522;28;20100;-82
2023/08/07 13:22:20;;;;;;;8.00;5.33;;;;;;;;;;6342659;28;20466;-81
2023/08/07 13:25:20;;;;;;;;;;;;;;;;;;6343478;28;20061;-75
2023/08/07 13:28:20;;;;;;;9.90;4.97;;;;;;;;;;6341884;28;19916;-76
2023/08/07 13:31:22;;;;;;;8.20;4.83;;;;;;;;;;6333541;27;20016;-77
2023/08/07 13:34:22;;;;;;;7.90;4.13;;;;;;;;;;6341183;28;20023;-77
2023/08/07 13:37:22;;;;;;;10.13;5.13;;;;;;;;;;6341744;28;20024;-77
2023/08/07 13:40:23;;;;;;;5.00;3.60;;;;;;;;;;6336732;28;20011;-76
2023/08/07 13:43:23;;;;;;;8.63;4.07;;;;;;;;;;6337274;28;20024;-76
2023/08/07 13:46:23;;;;;;;7.80;3.53;;;;;;;;;;6333570;28;20069;-77
2023/08/07 13:49:25;;;;;;;5.13;2.90;;;;;;;;;;6319017;28;20019;-78
2023/08/07 13:52:25;;;;;;;6.43;3.22;;;;;;;;;;6336258;28;20063;-78
2023/08/07 13:55:26;;;;;;;6.37;4.10;;;;;;;;;;6338035;28;20081;-77
2023/08/07 13:58:27;;;;;;;7.47;3.63;;;;;;;;;;6335253;28;20048;-76
2023/08/07 14:01:28;;;;;;;8.05;4.30;;;;;;;;;;6328819;28;20391;-76
2023/08/07 14:04:28;;;;;;;6.13;3.07;;;;;;;;;;6325299;28;20036;-77
2023/08/07 14:07:30;;;;;;;5.53;2.47;;;;;;;;;;6327457;28;20425;-77
2023/08/07 14:10:30;;;;;;;7.72;4.13;;;;;;;;;;6314939;28;20027;-77
2023/08/07 14:13:31;;;;;;;5.53;3.63;;;;;;;;;;6335034;28;20035;-77
2023/08/07 14:16:31;;;;;;;6.65;3.33;;;;;;;;;;6309833;28;20027;-77
2023/08/07 14:19:32;;;;;;;7.13;3.73;;;;;;;;;;6338309;28;20028;-76
2023/08/07 14:22:35;;;;;;;6.30;4.07;;;;;;;;;;6335950;28;20432;-76
2023/08/07 14:25:36;;;;;;;6.47;4.00;;;;;;;;;;6341649;28;20028;-75
2023/08/07 14:28:36;;;;;;;;;;;;;;;;;;6340405;28;20016;-76
2023/08/07 14:31:39;;;;;;;6.15;3.88;;;;;;;;;;6340233;28;19908;-76
2023/08/07 14:34:39;;;;;;;6.00;3.80;;;;;;;;;;6332493;28;20039;-76
2023/08/07 14:37:40;;;;;;;10.30;4.30;;;;;;;;;;6319345;28;20170;-76
2023/08/07 14:40:41;;;;;;;8.10;3.45;;;;;;;;;;6340668;28;20460;-76
2023/08/07 14:43:42;;;;;;;6.47;3.70;;;;;;;;;;6341604;28;20103;-75
2023/08/07 14:46:42;;;;;;;;;;;;;;;;;;6343353;28;20043;-81
2023/08/07 14:49:43;;;;;;;6.60;3.85;;;;;;;;;;6342994;28;20691;-79
2023/08/07 14:52:43;;;;;;;6.07;2.92;;;;;;;;;;6339153;28;20047;-80
2023/08/07 14:55:43;;;;;;;4.20;2.70;;;;;;;;;;6339820;28;20529;-81
2023/08/07 14:58:43;;;;;;;4.53;3.20;;;;;;;;;;6340467;28;20125;-80
2023/08/07 15:01:44;;;;;;;5.97;3.57;;;;;;;;;;6329545;28;20024;-80
2023/08/07 15:04:45;;;;;;;5.53;2.77;;;;;;;;;;6333865;28;20523;-78
2023/08/07 15:07:45;;;;;;;5.20;2.83;;;;;;;;;;6333309;28;20039;-79
2023/08/07 15:10:45;;;;;;;5.67;3.17;;;;;;;;;;6336000;28;20179;-81
2023/08/07 15:13:46;;;;;;;7.03;3.08;;;;;;;;;;6333515;28;20024;-79
2023/08/07 15:16:46;;;;;;;4.40;3.07;;;;;;;;;;6336900;28;20448;-78
2023/08/07 15:19:46;;;;;;;8.23;3.50;;;;;;;;;;6337437;28;20028;-79
2023/08/07 15:22:48;;;;;;;5.97;3.67;;;;;;;;;;6327620;28;20016;-79
2023/08/07 15:25:48;;;;;;;7.03;3.25;;;;;;;;;;6339467;28;20063;-79
2023/08/07 15:28:48;;;;;;;6.22;3.10;;;;;;;;;;6343122;28;20031;-79
2023/08/07 15:31:49;;;;;;;7.93;3.20;;;;;;;;;;6338217;28;20032;-78
2023/08/07 15:34:50;;;;;;;9.60;3.27;;;;;;;;;;6342953;28;20118;-79
2023/08/07 15:37:50;;;;;;;6.65;3.45;;;;;;;;;;6342780;28;20028;-76
2023/08/07 15:40:50;;;;;;;8.93;3.77;;;;;;;;;;6343872;28;20027;-78
2023/08/07 15:43:50;;;;;;;4.63;2.50;;;;;;;;;;6345856;28;20028;-76
2023/08/07 15:46:51;;;;;;;7.93;3.60;;;;;;;;;;6346264;28;20023;-76
2023/08/07 15:49:51;;;;;;;4.33;2.23;;;;;;;;;;6339489;28;20027;-76
2023/08/07 15:52:51;;;;;;;5.53;3.53;;;;;;;;;;6335542;28;20043;-75
2023/08/07 15:55:51;;;;;;;4.33;1.97;;;;;;;;;;6342206;28;20077;-80
2023/08/07 15:58:52;;;;;;;8.80;2.77;;;;;;;;;;6341038;28;20032;-80
2023/08/07 16:01:53;;;;;;;4.35;2.75;;;;;;;;;;6321710;28;20040;-80
2023/08/07 16:04:53;;;;;;;;;;;;;;;;;;6342757;28;20027;-80
2023/08/07 16:07:54;;;;;;;6.05;3.17;;;;;;;;;;6340221;28;20244;-80
2023/08/07 16:10:54;;;;;;;6.40;3.23;;;;;;;;;;6310583;28;20063;-81
2023/08/07 16:13:54;;;;;;;6.03;3.27;;;;;;;;;;6337451;28;20046;-79
2023/08/07 16:16:55;;;;;;;6.75;2.55;;;;;;;;;;6345083;28;20016;-80
2023/08/07 16:19:55;;;;;;;7.03;2.63;;;;;;;;;;6343152;28;20043;-78
2023/08/07 16:22:55;;;;;;;6.25;2.75;;;;;;;;;;6343145;28;20469;-78
2023/08/07 16:25:56;;;;;;;5.43;2.80;;;;;;;;;;6344262;28;20114;-78
2023/08/07 16:28:56;;;;;;;7.10;2.97;;;;;;;;;;6341435;28;20055;-80
2023/08/07 16:31:58;;;;;;;4.40;2.30;;;;;;;;;;6326616;28;20019;-80
2023/08/07 16:34:59;;;;;;;4.93;2.95;;;;;;;;;;6341775;28;20027;-80
2023/08/07 16:37:59;;;;;;;5.03;2.80;;;;;;;;;;6319743;28;20043;-80
2023/08/07 16:41:00;;;;;;;8.63;3.37;;;;;;;;;;6345898;28;20011;-80
2023/08/07 16:44:01;;;;;;;6.72;3.15;;;;;;;;;;6346164;28;20035;-80
2023/08/07 16:47:01;;;;;;;4.63;3.10;;;;;;;;;;6344427;28;20031;-76
2023/08/07 16:50:03;;;;;;;7.73;4.13;;;;;;;;;;6339324;28;20048;-76
2023/08/07 16:53:03;;;;;;;;;;;;;;;;;;6338294;27;20406;-77
2023/08/07 16:56:05;;;;;;;6.43;4.13;;;;;;;;;;6340341;28;19911;-75
2023/08/07 16:59:05;;;;;;;7.38;3.25;;;;;;;;;;6344369;28;20023;-76
2023/08/07 17:02:06;;;;;;;5.73;3.30;;;;;;;;;;6338057;28;20023;-78
2023/08/07 17:05:07;;;;;;;7.40;3.05;;;;;;;;;;6334851;28;20611;-80
2023/08/07 17:08:07;;;;;;;6.77;3.43;;;;;;;;;;6347613;27;20023;-80
2023/08/07 17:11:09;;;;;;;5.32;3.15;;;;;;;;;;6342722;28;20103;-80
2023/08/07 17:14:10;;;;;;;6.78;3.20;;;;;;;;;;6342047;28;20023;-79
2023/08/07 17:17:12;;;;;;;11.27;4.07;;;;;;;;;;6342235;28;20489;-78
2023/08/07 17:20:12;;;;;;;7.95;4.15;;;;;;;;;;6342458;28;20043;-79
2023/08/07 17:23:12;;;;;;;6.60;3.63;;;;;;;;;;6343940;28;20018;-79
2023/08/07 17:26:12;;;;;;;9.70;4.30;;;;;;;;;;6336102;28;20058;-79
2023/08/07 17:29:12;;;;;;;5.27;3.83;;;;;;;;;;6337628;28;20020;-80
2023/08/07 17:32:13;;;;;;;5.83;3.47;;;;;;;;;;6341115;28;20022;-79
2023/08/07 17:35:13;;;;;;;7.93;2.83;;;;;;;;;;6341227;28;20055;-81
2023/08/07 17:38:13;;;;;;;7.13;3.70;;;;;;;;;;6339468;28;20573;-80
2023/08/07 17:41:13;;;;;;;5.03;2.87;;;;;;;;;;6310526;28;20027;-80
2023/08/07 17:44:14;;;;;;;6.53;3.07;;;;;;;;;;6334533;28;20729;-80
2023/08/07 17:47:14;;;;;;;6.20;3.50;;;;;;;;;;6335841;28;20439;-80
2023/08/07 17:50:14;;;;;;;5.68;3.15;;;;;;;;;;6340782;28;20019;-78
2023/08/07 17:53:16;;;;;;;6.80;3.53;;;;;;;;;;6336142;28;20059;-80
2023/08/07 17:56:18;;;;;;;4.53;2.97;;;;;;;;;;6339115;28;20415;-79
2023/08/07 17:59:18;;;;;;;5.03;3.10;;;;;;;;;;6338458;28;20026;-79
2023/08/07 18:02:18;;;;;;;4.10;3.00;;;;;;;;;;6333658;28;20513;-79